createdAt,value
2022-09-12T00:01:50.098Z,100182.81
2022-09-12T00:04:16.501Z,100184.75
2022-09-12T00:06:43.352Z,100185.63
2022-09-12T00:09:10.955Z,100183.06
2022-09-12T00:11:37.556Z,100180.38
2022-09-12T00:14:04.591Z,100182.22
2022-09-12T00:16:33.624Z,100175.19
2022-09-12T00:19:00.371Z,100164.28
2022-09-12T00:21:27.081Z,100157.94
2022-09-12T00:23:53.514Z,100154.28
2022-09-12T00:26:20.654Z,100155.97
2022-09-12T00:28:47.638Z,100156.81
2022-09-12T00:31:14.991Z,100150.59
2022-09-12T00:33:43.268Z,100153.28
2022-09-12T00:36:10.729Z,100158.66
2022-09-12T00:38:37.033Z,100165.84
2022-09-12T00:41:03.364Z,100175.75
2022-09-12T00:43:34.186Z,100169.66
2022-09-12T00:46:02.654Z,100166.28
2022-09-12T00:48:31.890Z,100162.72
2022-09-12T00:50:59.701Z,100165.56
2022-09-12T00:53:26.193Z,100153.97
2022-09-12T00:55:53.145Z,100161.19
2022-09-12T00:58:21.573Z,100153.97
2022-09-12T01:00:48.014Z,100140.69
2022-09-12T01:03:15.996Z,100141.69
2022-09-12T01:05:44.149Z,100141.56
2022-09-12T01:08:11.897Z,100139.72
2022-09-12T01:10:39.821Z,100134.38
2022-09-12T01:13:09.602Z,100134.38
2022-09-12T01:15:37.051Z,100124.59
2022-09-12T01:18:09.929Z,100124.47
2022-09-12T01:20:50.136Z,100120.78
2022-09-12T01:23:24.849Z,100112.75
2022-09-12T01:26:00.398Z,100107.38
2022-09-12T01:28:36.246Z,100102.88
2022-09-12T01:31:06.560Z,100093.97
2022-09-12T01:33:40.248Z,100102.88
2022-09-12T01:36:15.172Z,100104.84
2022-09-12T01:38:46.532Z,100112.06
2022-09-12T01:41:20.790Z,100108.38
2022-09-12T01:43:49.588Z,100112.19
2022-09-12T01:46:19.156Z,100117.69
2022-09-12T01:48:47.821Z,100110.63
2022-09-12T01:51:18.604Z,100106.25
2022-09-12T01:53:48.466Z,100101.03
2022-09-12T01:56:17.686Z,100096.38
2022-09-12T01:58:46.754Z,100103.44
2022-09-12T02:01:15.955Z,100097.19
2022-09-12T02:03:46.650Z,100098.19
2022-09-12T02:06:17.783Z,100099.75
2022-09-12T02:08:46.919Z,100095.41
2022-09-12T02:11:13.594Z,100096.25
2022-09-12T02:13:41.658Z,100094.53
2022-09-12T02:16:09.650Z,100098.06
2022-09-12T02:18:38.739Z,100093.56
2022-09-12T02:21:07.390Z,100085.63
2022-09-12T02:23:36.635Z,100083.94
2022-09-12T02:26:05.842Z,100082.25
2022-09-12T02:28:34.368Z,100078.72
2022-09-12T02:31:04.813Z,100072.50
2022-09-12T02:33:33.246Z,100077.84
2022-09-12T02:36:04.563Z,100067.13
2022-09-12T02:38:35.437Z,100075.19
2022-09-12T02:41:01.823Z,100070.69
2022-09-12T02:43:28.225Z,100061.91
2022-09-12T02:45:54.614Z,100062.75
2022-09-12T02:48:22.721Z,100061.75
2022-09-12T02:50:49.187Z,100058.25
2022-09-12T02:53:15.638Z,100056.41
2022-09-12T02:55:43.663Z,100062.75
2022-09-12T02:58:11.806Z,100056.56
2022-09-12T03:00:42.015Z,100061.06
2022-09-12T03:03:15.106Z,100061.91
2022-09-12T03:05:44.996Z,100070.81
2022-09-12T03:08:19.517Z,100068.13
2022-09-12T03:10:58.333Z,100069.13
2022-09-12T03:13:28.923Z,100066.44
2022-09-12T03:16:03.859Z,100071.09
2022-09-12T03:18:35.458Z,100073.91
2022-09-12T03:21:04.709Z,100075.59
2022-09-12T03:23:33.168Z,100058.81
2022-09-12T03:26:05.631Z,100064.19
2022-09-12T03:28:32.931Z,100057.09
2022-09-12T03:30:59.355Z,100052.59
2022-09-12T03:33:25.744Z,100040.16
2022-09-12T03:35:52.485Z,100037.50
2022-09-12T03:38:19.088Z,100036.50
2022-09-12T03:40:45.449Z,100030.28
2022-09-12T03:43:13.077Z,100029.31
2022-09-12T03:45:39.422Z,100027.75
2022-09-12T03:48:06.523Z,100037.63
2022-09-12T03:50:32.868Z,100040.44
2022-09-12T03:52:59.515Z,100039.59
2022-09-12T03:55:25.842Z,100033.41
2022-09-12T03:57:52.727Z,100029.03
2022-09-12T04:00:20.590Z,100031.00
2022-09-12T04:02:47.019Z,100029.16
2022-09-12T04:05:13.395Z,100025.34
2022-09-12T04:07:39.743Z,100027.19
2022-09-12T04:10:06.434Z,100030.84
2022-09-12T04:12:32.794Z,100025.47
2022-09-12T04:14:59.117Z,100032.41
2022-09-12T04:17:26.801Z,100027.19
2022-09-12T04:19:53.121Z,100033.25
2022-09-12T04:22:19.420Z,100035.81
2022-09-12T04:24:45.741Z,100037.38
2022-09-12T04:27:12.052Z,100032.69
2022-09-12T04:29:38.486Z,100039.06
2022-09-12T04:32:04.925Z,100035.38
2022-09-12T04:34:32.660Z,100023.81
2022-09-12T04:36:59.000Z,100024.66
2022-09-12T04:39:25.443Z,100032.69
2022-09-12T04:41:51.802Z,100028.16
2022-09-12T04:44:18.389Z,100027.22
2022-09-12T04:46:46.504Z,100023.53
2022-09-12T04:49:13.696Z,100020.84
2022-09-12T04:51:41.676Z,100021.84
2022-09-12T04:54:11.659Z,100021.84
2022-09-12T04:56:39.061Z,100016.47
2022-09-12T04:59:05.586Z,100007.44
2022-09-12T05:01:32.401Z,100013.63
2022-09-12T05:03:58.916Z,100009.13
2022-09-12T05:06:26.675Z,100010.13
2022-09-12T05:08:54.749Z,100015.47
2022-09-12T05:11:25.481Z,100013.63
2022-09-12T05:13:53.142Z,100008.28
2022-09-12T05:16:20.199Z,100008.28
2022-09-12T05:18:46.944Z,100007.44
2022-09-12T05:21:14.606Z,100008.13
2022-09-12T05:23:41.331Z,100005.59
2022-09-12T05:26:12.879Z,100004.59
2022-09-12T05:28:39.220Z,100011.97
2022-09-12T05:31:06.648Z,100006.31
2022-09-12T05:33:33.683Z,100009.13
2022-09-12T05:36:00.334Z,100014.03
2022-09-12T05:38:27.057Z,100013.88
2022-09-12T05:40:53.399Z,100019.84
2022-09-12T05:43:20.986Z,100018.00
2022-09-12T05:45:47.373Z,100011.63
2022-09-12T05:48:13.700Z,100010.94
2022-09-12T05:50:40.012Z,100012.88
2022-09-12T05:53:06.385Z,100008.63
2022-09-12T05:55:32.689Z,100007.94
2022-09-12T05:57:59.039Z,100009.81
2022-09-12T06:00:29.362Z,100013.09
2022-09-12T06:02:59.209Z,100007.00
2022-09-12T06:05:25.621Z,100003.88
2022-09-12T06:07:51.963Z,100007.97
2022-09-12T06:10:18.462Z,100012.38
2022-09-12T06:12:44.804Z,100015.91
2022-09-12T06:15:11.147Z,100019.84
2022-09-12T06:17:38.772Z,100015.63
2022-09-12T06:20:05.361Z,100017.31
2022-09-12T06:22:31.691Z,100008.28
2022-09-12T06:24:58.223Z,100004.03
2022-09-12T06:27:24.846Z,100000.22
2022-09-12T06:29:51.226Z,100001.78
2022-09-12T06:32:17.581Z,100003.75
2022-09-12T06:34:45.248Z,100005.72
2022-09-12T06:37:11.649Z,99997.53
2022-09-12T06:39:38.025Z,100017.31
2022-09-12T06:42:04.632Z,100014.06
2022-09-12T06:44:30.953Z,99998.78
2022-09-12T06:46:57.300Z,99996.13
2022-09-12T06:49:23.634Z,100004.56
2022-09-12T06:51:51.317Z,100000.91
2022-09-12T06:54:17.637Z,99996.84
2022-09-12T06:56:44.013Z,99999.38
2022-09-12T06:59:10.344Z,99997.25
2022-09-12T07:01:36.761Z,99991.75
2022-09-12T07:04:03.985Z,99987.94
2022-09-12T07:06:34.909Z,99982.16
2022-09-12T07:09:03.956Z,99979.06
2022-09-12T07:11:31.121Z,99979.34
2022-09-12T07:13:58.800Z,99980.31
2022-09-12T07:16:25.484Z,99980.56
2022-09-12T07:18:52.233Z,99966.59
2022-09-12T07:21:18.593Z,99966.16
2022-09-12T07:23:44.936Z,99969.00
2022-09-12T07:26:13.475Z,99957.88
2022-09-12T07:28:40.075Z,99962.69
2022-09-12T07:31:07.149Z,99957.00
2022-09-12T07:33:33.531Z,99955.75
2022-09-12T07:36:00.757Z,99954.19
2022-09-12T07:38:27.114Z,99952.56
2022-09-12T07:40:53.503Z,99946.63
2022-09-12T07:43:21.108Z,99939.31
2022-09-12T07:45:47.582Z,99939.84
2022-09-12T07:48:13.940Z,99946.63
2022-09-12T07:50:44.978Z,99947.91
2022-09-12T07:53:11.503Z,99948.56
2022-09-12T07:55:37.847Z,99959.50
2022-09-12T07:58:04.167Z,99957.34
2022-09-12T08:00:31.790Z,99957.09
2022-09-12T08:02:58.126Z,99956.13
2022-09-12T08:05:24.447Z,99955.13
2022-09-12T08:07:52.713Z,99957.94
2022-09-12T08:10:22.219Z,99956.53
2022-09-12T08:12:48.676Z,99959.94
2022-09-12T08:15:15.023Z,99955.25
2022-09-12T08:17:42.677Z,99951.72
2022-09-12T08:20:09.139Z,99953.84
2022-09-12T08:22:35.500Z,99942.13
2022-09-12T08:25:01.853Z,99938.59
2022-09-12T08:27:28.162Z,99937.88
2022-09-12T08:29:54.484Z,99934.19
2022-09-12T08:32:20.844Z,99940.22
2022-09-12T08:34:48.466Z,99935.91
2022-09-12T08:37:14.816Z,99934.97
2022-09-12T08:39:41.162Z,99924.28
2022-09-12T08:44:47.251Z,99911.28
2022-09-12T08:47:17.753Z,99914.25
2022-09-12T08:49:48.632Z,99914.44
2022-09-12T08:52:19.051Z,99918.97
2022-09-12T08:54:45.499Z,99918.25
2022-09-12T08:57:11.908Z,99914.84
2022-09-12T08:59:39.651Z,99917.53
2022-09-12T09:02:12.984Z,99917.84
2022-09-12T09:04:48.017Z,99916.31
2022-09-12T09:07:22.717Z,99914.47
2022-09-12T09:09:56.480Z,99911.22
2022-09-12T09:12:25.426Z,99907.84
2022-09-12T09:15:03.337Z,99908.72
2022-09-12T09:17:32.268Z,99904.19
2022-09-12T09:20:03.097Z,99905.03
2022-09-12T09:22:36.175Z,99905.88
2022-09-12T09:25:05.246Z,99903.63
2022-09-12T09:27:41.546Z,99910.53
2022-09-12T09:30:12.852Z,99903.81
2022-09-12T09:32:40.864Z,99906.78
2022-09-12T09:35:12.380Z,99908.63
2022-09-12T09:37:42.001Z,99908.31
2022-09-12T09:40:15.603Z,99907.94
2022-09-12T09:42:45.316Z,99913.22
2022-09-12T09:45:13.978Z,99911.38
2022-09-12T09:47:40.328Z,99910.84
2022-09-12T09:50:07.070Z,99904.28
2022-09-12T09:52:35.292Z,99902.13
2022-09-12T09:55:03.177Z,99897.78
2022-09-12T09:57:44.385Z,99896.56
2022-09-12T10:00:25.557Z,99889.75
2022-09-12T10:03:00.900Z,99888.91
2022-09-12T10:05:27.435Z,99893.59
2022-09-12T10:07:53.911Z,99893.22
2022-09-12T10:10:21.563Z,99881.75
2022-09-12T10:12:48.183Z,99866.09
2022-09-12T10:15:17.855Z,99872.31
2022-09-12T10:17:45.044Z,99864.56
2022-09-12T10:20:26.320Z,99866.09
2022-09-12T10:22:52.611Z,99861.94
2022-09-12T10:25:19.620Z,99864.91
2022-09-12T10:27:52.296Z,99868.22
2022-09-12T10:30:19.515Z,99857.59
2022-09-12T10:32:46.684Z,99856.94
2022-09-12T10:35:17.208Z,99848.34
2022-09-12T10:37:52.417Z,99851.00
2022-09-12T10:40:22.548Z,99855.84
2022-09-12T10:42:51.650Z,99856.38
2022-09-12T10:45:21.240Z,99849.69
2022-09-12T10:47:48.033Z,99849.69
2022-09-12T10:50:23.383Z,99843.72
2022-09-12T10:52:49.869Z,99844.28
2022-09-12T10:55:16.601Z,99845.00
2022-09-12T10:57:58.641Z,99840.72
2022-09-12T11:00:25.070Z,99846.47
2022-09-12T11:02:57.133Z,99846.47
2022-09-12T11:05:35.458Z,99840.00
2022-09-12T11:08:08.361Z,99831.56
2022-09-12T11:10:44.290Z,99835.78
2022-09-12T11:13:17.032Z,99837.63
2022-09-12T11:15:55.670Z,99833.78
2022-09-12T11:18:29.482Z,99836.78
2022-09-12T11:21:02.133Z,99839.59
2022-09-12T11:23:43.405Z,99830.31
2022-09-12T11:26:16.818Z,99831.28
2022-09-12T11:28:52.430Z,99829.63
2022-09-12T11:31:40.113Z,99827.22
2022-09-12T11:34:08.764Z,99826.38
2022-09-12T11:36:39.203Z,99824.84
2022-09-12T11:39:10.680Z,99827.16
2022-09-12T11:41:38.154Z,99826.56
2022-09-12T11:44:10.300Z,99824.03
2022-09-12T11:46:37.814Z,99826.88
2022-09-12T11:49:07.005Z,99832.38
2022-09-12T11:51:35.663Z,99834.75
2022-09-12T11:54:06.584Z,99839.53
2022-09-12T11:56:34.425Z,99832.91
2022-09-12T11:59:03.056Z,99837.16
2022-09-12T12:01:37.431Z,99840.44
2022-09-12T12:04:11.381Z,99835.94
2022-09-12T12:06:43.357Z,99833.53
2022-09-12T12:09:11.236Z,99832.53
2022-09-12T12:11:39.547Z,99836.06
2022-09-12T12:14:07.632Z,99835.06
2022-09-12T12:16:37.788Z,99833.38
2022-09-12T12:19:10.471Z,99836.06
2022-09-12T12:21:40.170Z,99835.78
2022-09-12T12:24:15.752Z,99829.00
2022-09-12T12:26:43.933Z,99831.41
2022-09-12T12:29:10.669Z,99828.09
2022-09-12T12:32:08.445Z,99826.28
2022-09-12T12:34:35.999Z,99818.34
2022-09-12T12:37:32.214Z,99818.66
2022-09-12T12:39:59.627Z,99814.75
2022-09-12T12:42:36.214Z,99810.88
2022-09-12T12:45:03.154Z,99803.13
2022-09-12T12:47:32.868Z,99806.53
2022-09-12T12:50:01.546Z,99802.28
2022-09-12T12:52:29.833Z,99815.59
2022-09-12T12:54:57.638Z,99813.44
2022-09-12T12:57:37.702Z,99817.25
2022-09-12T13:00:05.676Z,99820.13
2022-09-12T13:02:35.883Z,99813.03
2022-09-12T13:05:05.228Z,99806.06
2022-09-12T13:07:33.677Z,99799.00
2022-09-12T13:10:01.063Z,99788.72
2022-09-12T13:12:29.001Z,99786.34
2022-09-12T13:14:56.092Z,99777.13
2022-09-12T13:17:24.624Z,99769.22
2022-09-12T13:20:10.651Z,99770.22
2022-09-12T13:22:41.351Z,99766.53
2022-09-12T13:25:18.580Z,99764.00
2022-09-12T13:27:56.530Z,99762.41
2022-09-12T13:30:27.193Z,99761.94
2022-09-12T13:32:53.742Z,99762.78
2022-09-12T13:35:23.736Z,99762.94
2022-09-12T13:37:54.500Z,99768.31
2022-09-12T13:40:28.827Z,99758.25
2022-09-12T13:43:07.668Z,99754.72
2022-09-12T13:45:37.398Z,99751.88
2022-09-12T13:48:04.055Z,99750.19
2022-09-12T13:50:33.196Z,99746.50
2022-09-12T13:53:01.574Z,99748.19
2022-09-12T13:55:29.958Z,99740.97
2022-09-12T13:57:57.459Z,99733.63
2022-09-12T14:00:23.924Z,99736.31
2022-09-12T14:02:50.298Z,99738.28
2022-09-12T14:05:19.558Z,99729.44
2022-09-12T14:07:51.723Z,99725.56
2022-09-12T14:10:21.597Z,99723.84
2022-09-12T14:12:48.026Z,99724.19
2022-09-12T14:15:16.801Z,99721.34
2022-09-12T14:17:48.707Z,99713.03
2022-09-12T14:20:15.881Z,99704.28
2022-09-12T14:22:42.364Z,99701.91
2022-09-12T14:25:14.448Z,99702.03
2022-09-12T14:27:42.597Z,99689.63
2022-09-12T14:30:21.159Z,99687.94
2022-09-12T14:33:02.320Z,99685.41
2022-09-12T14:35:28.832Z,99682.03
2022-09-12T14:37:55.514Z,99670.03
2022-09-12T14:40:25.873Z,99666.41
2022-09-12T14:42:52.648Z,99661.31
2022-09-12T14:45:23.849Z,99669.03
2022-09-12T14:47:51.060Z,99667.50
2022-09-12T14:50:18.549Z,99668.44
2022-09-12T14:52:44.862Z,99664.38
2022-09-12T14:55:23.242Z,99660.03
2022-09-12T14:58:06.603Z,99648.44
2022-09-12T15:00:33.047Z,99642.38
2022-09-12T15:03:19.319Z,99654.78
2022-09-12T15:05:48.879Z,99643.38
2022-09-12T15:08:15.212Z,99638.00
2022-09-12T15:10:41.563Z,99642.53
2022-09-12T15:13:17.514Z,99636.28
2022-09-12T15:15:44.859Z,99633.78
2022-09-12T15:18:11.288Z,99635.94
2022-09-12T15:20:38.343Z,99621.50
2022-09-12T15:23:05.294Z,99625.00
2022-09-12T15:25:31.841Z,99624.19
2022-09-12T15:27:58.194Z,99624.03
2022-09-12T15:30:25.931Z,99611.75
2022-09-12T15:32:52.316Z,99622.50
2022-09-12T15:35:20.324Z,99619.13
2022-09-12T15:37:46.655Z,99611.88
2022-09-12T15:40:13.291Z,99613.13
2022-09-12T15:42:39.841Z,99610.16
2022-09-12T15:45:13.875Z,99610.91
2022-09-12T15:47:41.543Z,99608.22
2022-09-12T15:50:08.196Z,99615.13
2022-09-12T15:52:34.557Z,99619.19
2022-09-12T15:55:00.902Z,99627.13
2022-09-12T15:57:27.341Z,99622.09
2022-09-12T15:59:53.666Z,99625.47
2022-09-12T16:02:20.239Z,99619.59
2022-09-12T16:04:47.912Z,99614.59
2022-09-12T16:07:14.395Z,99614.06
2022-09-12T16:09:40.728Z,99605.41
2022-09-12T16:12:07.078Z,99607.03
2022-09-12T16:14:33.443Z,99603.66
2022-09-12T16:16:59.872Z,99589.22
2022-09-12T16:19:26.267Z,99594.75
2022-09-12T16:21:54.128Z,99589.69
2022-09-12T16:24:20.485Z,99598.75
2022-09-12T16:26:46.893Z,99590.00
2022-09-12T16:29:13.439Z,99593.69
2022-09-12T16:31:39.746Z,99586.66
2022-09-12T16:34:06.305Z,99592.16
2022-09-12T16:36:32.673Z,99583.28
2022-09-12T16:39:00.387Z,99586.44
2022-09-12T16:41:26.776Z,99586.56
2022-09-12T16:43:53.871Z,99588.25
2022-09-12T16:46:21.577Z,99611.75
2022-09-12T16:48:52.100Z,99608.38
2022-09-12T16:51:20.041Z,99607.53
2022-09-12T16:53:46.743Z,99620.28
2022-09-12T16:56:14.484Z,99624.13
2022-09-12T16:58:42.158Z,99627.81
2022-09-12T17:01:09.568Z,99635.19
2022-09-12T17:03:36.096Z,99641.56
2022-09-12T17:06:03.892Z,99646.91
2022-09-12T17:08:30.535Z,99651.59
2022-09-12T17:10:59.236Z,99645.56
2022-09-12T17:13:41.129Z,99655.50
2022-09-12T17:16:13.423Z,99650.50
2022-09-12T17:18:39.800Z,99652.63
2022-09-12T17:21:06.360Z,99658.22
2022-09-12T17:23:32.693Z,99670.03
2022-09-12T17:25:59.612Z,99668.50
2022-09-12T17:28:27.533Z,99662.69
2022-09-12T17:30:55.431Z,99656.13
2022-09-12T17:33:21.898Z,99661.19
2022-09-12T17:35:48.311Z,99668.59
2022-09-12T17:38:18.621Z,99677.50
2022-09-12T17:40:58.971Z,99671.13
2022-09-12T17:43:27.605Z,99664.56
2022-09-12T17:45:55.424Z,99667.44
2022-09-12T17:48:21.769Z,99683.72
2022-09-12T17:50:48.056Z,99712.75
2022-09-12T17:53:14.390Z,99720.97
2022-09-12T17:55:40.710Z,99720.25
2022-09-12T17:58:07.073Z,99724.09
2022-09-12T18:00:34.835Z,99729.63
2022-09-12T18:03:01.243Z,99718.50
2022-09-12T18:05:27.689Z,99710.72
2022-09-12T18:07:54.051Z,99703.69
2022-09-12T18:10:20.519Z,99708.06
2022-09-12T18:12:46.850Z,99725.34
2022-09-12T18:15:13.183Z,99736.22
2022-09-12T18:17:40.773Z,99752.31
2022-09-12T18:20:07.367Z,99759.53
2022-09-12T18:22:33.708Z,99769.75
2022-09-12T18:25:00.028Z,99773.44
2022-09-12T18:27:26.338Z,99774.44
2022-09-12T18:30:10.636Z,99774.56
2022-09-12T18:32:38.953Z,99771.22
2022-09-12T18:35:07.036Z,99742.81
2022-09-12T18:37:33.487Z,99692.34
2022-09-12T18:39:59.869Z,99685.25
2022-09-12T18:42:26.297Z,99707.25
2022-09-12T18:44:52.648Z,99701.91
2022-09-12T18:47:18.981Z,99670.63
2022-09-12T18:49:45.282Z,99649.63
2022-09-12T18:52:12.875Z,99636.72
2022-09-12T18:54:39.178Z,99628.31
2022-09-12T18:57:05.527Z,99616.91
2022-09-12T18:59:31.865Z,99623.63
2022-09-12T19:01:58.226Z,99621.81
2022-09-12T19:04:24.619Z,99622.88
2022-09-12T19:06:50.987Z,99615.34
2022-09-12T19:09:19.376Z,99606.81
2022-09-12T19:11:46.547Z,99631.22
2022-09-12T19:14:12.969Z,99636.06
2022-09-12T19:16:39.288Z,99636.06
2022-09-12T19:19:05.737Z,99641.91
2022-09-12T19:21:33.040Z,99634.88
2022-09-12T19:24:00.253Z,99630.66
2022-09-12T19:26:27.948Z,99634.16
2022-09-12T19:28:54.745Z,99641.56
2022-09-12T19:31:21.920Z,99652.59
2022-09-12T19:33:48.733Z,99670.56
2022-09-12T19:36:43.415Z,99667.03
2022-09-12T19:39:03.193Z,99666.34
2022-09-12T19:41:30.899Z,99666.63
2022-09-12T19:43:57.415Z,99658.75
2022-09-12T19:46:24.898Z,99656.91
2022-09-12T19:48:51.620Z,99648.75
2022-09-12T19:51:18.999Z,99633.78
2022-09-12T19:53:45.652Z,99621.91
2022-09-12T19:56:12.996Z,99616.75
2022-09-12T19:58:41.493Z,99614.47
2022-09-12T20:01:08.701Z,99610.47
2022-09-12T20:03:35.056Z,99616.34
2022-09-12T20:06:01.881Z,99639.91
2022-09-12T20:08:28.229Z,99636.03
2022-09-12T20:10:57.018Z,99642.97
2022-09-12T20:13:23.622Z,99644.56
2022-09-12T20:15:51.286Z,99637.16
2022-09-12T20:18:18.640Z,99632.84
2022-09-12T20:20:45.049Z,99644.00
2022-09-12T20:23:11.491Z,99646.13
2022-09-12T20:25:37.829Z,99650.81
2022-09-12T20:28:04.178Z,99654.50
2022-09-12T20:30:30.494Z,99656.50
2022-09-12T20:32:58.075Z,99662.72
2022-09-12T20:35:24.448Z,99667.56
2022-09-12T20:37:50.752Z,99670.38
2022-09-12T20:40:17.183Z,99675.09
2022-09-12T20:42:43.620Z,99678.75
2022-09-12T20:45:10.122Z,99674.38
2022-09-12T20:47:36.436Z,99669.19
2022-09-12T20:50:04.354Z,99664.78
2022-09-12T20:52:30.699Z,99667.63
2022-09-12T20:54:57.124Z,99665.31
2022-09-12T20:57:23.451Z,99661.38
2022-09-12T20:59:49.785Z,99651.28
2022-09-12T21:02:16.681Z,99657.38
2022-09-12T21:04:43.135Z,99660.78
2022-09-12T21:07:10.744Z,99667.94
2022-09-12T21:09:37.108Z,99666.06
2022-09-12T21:12:03.699Z,99665.28
2022-09-12T21:14:30.001Z,99671.00
2022-09-12T21:16:56.304Z,99665.47
2022-09-12T21:19:22.653Z,99666.63
2022-09-12T21:21:49.024Z,99667.59
2022-09-12T21:24:16.794Z,99689.31
2022-09-12T21:26:43.239Z,99689.34
2022-09-12T21:29:09.579Z,99692.47
2022-09-12T21:31:35.952Z,99692.81
2022-09-12T21:34:02.362Z,99698.00
2022-09-12T21:36:28.684Z,99687.75
2022-09-12T21:38:57.173Z,99688.03
2022-09-12T21:41:24.916Z,99695.41
2022-09-12T21:43:51.361Z,99693.72
2022-09-12T21:46:17.735Z,99692.03
2022-09-12T21:48:44.277Z,99689.66
2022-09-12T21:51:10.931Z,99681.75
2022-09-12T21:53:37.612Z,99670.16
2022-09-12T21:56:04.656Z,99664.97
2022-09-12T21:58:32.347Z,99644.44
2022-09-12T22:00:58.904Z,99632.19
2022-09-12T22:03:25.419Z,99612.56
2022-09-12T22:05:56.063Z,99608.16
2022-09-12T22:08:22.389Z,99593.06
2022-09-12T22:10:48.875Z,99597.88
2022-09-12T22:13:15.284Z,99591.00
2022-09-12T22:15:44.392Z,99578.78
2022-09-12T22:18:10.699Z,99575.78
2022-09-12T22:20:37.017Z,99571.59
2022-09-12T22:23:03.449Z,99578.53
2022-09-12T22:25:29.904Z,99580.56
2022-09-12T22:27:56.273Z,99577.38
2022-09-12T22:30:23.050Z,99584.28
2022-09-12T22:32:50.838Z,99588.56
2022-09-12T22:35:17.717Z,99602.22
2022-09-12T22:37:44.150Z,99610.34
2022-09-12T22:40:11.111Z,99618.50
2022-09-12T22:42:37.493Z,99619.81
2022-09-12T22:45:04.063Z,99622.81
2022-09-12T22:47:30.485Z,99620.44
2022-09-12T22:49:58.077Z,99619.91
2022-09-12T22:52:24.418Z,99623.72
2022-09-12T22:54:50.779Z,99616.69
2022-09-12T22:57:17.544Z,99605.28
2022-09-12T22:59:43.881Z,99598.38
2022-09-12T23:02:10.445Z,99594.97
2022-09-12T23:04:36.716Z,99594.31
2022-09-12T23:07:04.348Z,99590.75
2022-09-12T23:09:34.715Z,99597.09
2022-09-12T23:12:01.904Z,99600.47
2022-09-12T23:14:28.202Z,99597.22
2022-09-12T23:16:56.342Z,99596.88
2022-09-12T23:19:22.679Z,99590.59
2022-09-12T23:21:49.005Z,99581.22
2022-09-12T23:24:16.606Z,99579.03
2022-09-12T23:26:42.927Z,99576.88
2022-09-12T23:29:09.329Z,99577.38
2022-09-12T23:31:35.718Z,99584.28
2022-09-12T23:34:03.271Z,99597.69
2022-09-12T23:36:29.905Z,99605.44
2022-09-12T23:38:56.618Z,99617.41
2022-09-12T23:41:24.429Z,99628.00
2022-09-12T23:43:50.748Z,99622.28
2022-09-12T23:46:18.044Z,99617.91
2022-09-12T23:48:44.578Z,99603.78
2022-09-12T23:51:10.993Z,99603.97
2022-09-12T23:53:37.666Z,99603.25
2022-09-12T23:56:04.067Z,99593.66
2022-09-12T23:58:31.878Z,99593.00
